x

Cape Cleare - 17 Nm South Of Montague Is, Ak (46076) Weather Station

2:50pm - Tue 2nd Sep 2014 All times are AKDT. -8 hours from GMT.

  • Wind
    7mph, 9mph gusts
  • Sea Temp 58°f
  • Air Temp 56°f
  • Sea Pressure 1014.1mb
  • Cape Cleare - 17 Nm South Of Montague Is,  Ak
  • Cape Cleare - 17 Nm South Of Montague Is,  Ak

More Historic Weather Station data

Upgrade to MSW Pro to gain access to the past 30 days of data for over 8000 Wavebouys and Weather Stations around the globe.

Join Pro

Comparision Forecast

View Surf forecast
   
Tue 09/02 2:50pm  -   -   -  7 9 mph 1014.1mb 58f 56f
1:50pm  -   -   -  11
mph
1013.9mb 58f 56f
12:50pm  -   -   -  11 13 mph 1013.5mb 57f 56f
11:50am  -   -   -  11
mph
1013.3mb 57f 56f
9:50am  -   -   -  13 16 mph 1012.4mb 57f 57f
8:50am  -   -   -  16 18 mph 1012.4mb 57f 57f
7:50am  -   -   -  16 20 mph 1012.1mb 57f 56f
6:50am  -   -   -  20 22 mph 1012.1mb 57f 56f
5:50am  -   -   -  13 18 mph 1012.4mb 57f 57f
4:50am  -   -   -  11
mph
1012.2mb 57f 57f
3:50am  -   -   -  13
mph
- - 57f
2:50am 5ft 7s 5s 11 13 mph 1012.1mb 57f 57f
1:50am  -   -   -  11 13 mph 1011.9mb 57f 57f
12:50am  -   -   -  16 18 mph 1011.6mb 57f 57f
Mon 09/01 11:50pm  -   -   -  18
mph
- - 57f
10:50pm  -   -   -  16 20 mph 1011.8mb 57f 58f
9:50pm  -   -   -  16 18 mph 1011.6mb 57f 57f
6:50pm  -   -   -  16 18 mph 1011.7mb 58f 57f
5:50pm  -   -   -  13 16 mph 1011.9mb 58f 57f
4:50pm  -   -   -  16 18 mph 1012mb 57f 57f
3:50pm  -   -   -  16 18 mph 1012mb 57f 57f
2:50pm  -   -   -  18 22 mph 1011.9mb 57f 57f
1:50pm  -   -   -  11 13 mph 1011.6mb 57f 57f
12:50pm  -   -   -  11 13 mph 1011.3mb 57f 57f
11:50am  -   -   -  9 11 mph 1010.8mb 57f 57f
10:50am  -   -   -  9
mph
1010.3mb 57f 57f
9:50am 4ft 8s 6s 11 13 mph 1009.8mb 57f 57f
8:50am  -   -   -  11 13 mph 1009.3mb 57f 57f
7:50am  -   -   -  13 16 mph 1008.7mb 57f 56f
6:50am  -   -   -  9 11 mph 1008.4mb 57f 56f
5:50am  -   -   -  11 13 mph 1008mb 57f 55f
4:50am  -   -   -  7 9 mph 1007.8mb 57f 55f
3:50am  -   -   -  9 11 mph 1007.5mb 57f 55f
2:50am 3.5ft 14s 7s 9 11 mph 1007.2mb 57f 56f
1:50am  -   -   -  9 13 mph 1007mb 57f 56f
12:50am 2.5ft 14s 6s 9 11 mph 1006.8mb 58f 56f
Sun 08/31 11:50pm  -   -   -  11 13 mph 1006.6mb 57f 56f
10:50pm  -   -   -  11
mph
1006.6mb 57f 56f
8:50pm  -   -   -  11 13 mph 1006mb 57f 55f
7:50pm 2.5ft 14s 8s 9
mph
1005.9mb 57f 56f
6:50pm  -   -   -  7 9 mph 1005.7mb 58f 56f
5:50pm  -   -   -  2 4 mph 1005.7mb 58f 56f
4:50pm  -   -   -   -  2 mph 1005.6mb 58f 57f
3:50pm  -   -   -   -  2 mph 1005.6mb 57f 56f
2:50pm  -   -   -  4
mph
1005.3mb 57f 55f
1:50pm  -   -   -  2 4 mph 1005.2mb 57f 55f
12:50pm  -   -   -  2 4 mph 1005mb 57f 55f
11:50am 2.5ft 15s 6s 2 4 mph 1004.8mb 57f 55f
10:50am  -   -   -  2 4 mph 1004.5mb 57f 55f
9:50am  -   -   -  4
mph
1004.1mb 57f 55f
8:50am  -   -   -  2 4 mph 1003.7mb 56f 55f
7:50am  -   -   -   -  mph 1003.3mb 56f 54f
5:50am  -   -   -   -  2 mph 1002.8mb 56f 54f
4:50am  -   -   -  2
mph
1002.6mb 56f 54f
3:50am  -   -   -  2 4 mph 1002.2mb 56f 54f
2:50am  -   -   -  2 4 mph 1002mb 56f 54f
1:50am  -   -   -  4
mph
1001.9mb 57f 55f
12:50am 3.5ft 15s 7s 2 4 mph 1001.4mb 57f 55f
Sat 08/30 11:50pm 3.5ft 13s 6s 2
mph
1001.1mb 57f 55f
10:50pm  -   -   -  2 4 mph 1001.1mb 57f 55f
9:50pm  -   -   -  2 4 mph 1000.7mb 56f 55f
8:50pm  -   -   -  2
mph
- - 55f
7:50pm  -   -   -  4
mph
- - 56f
6:50pm 4ft 15s 6s 2 4 mph 1000.3mb 58f 56f
5:50pm 4.5ft 15s 6s 2 4 mph 1000.3mb 58f 56f
4:50pm 5ft 15s 7s 2 4 mph 1000.4mb - 56f
3:50pm  -   -   -  4 7 mph 1000.5mb 57f 56f
2:50pm  -   -   -  2 4 mph 1000.6mb 56f 56f
1:50pm  -   -   -   -  2 mph 1000.8mb 56f 55f
12:50pm  -   -   -   -  2 mph 1000.7mb 56f 55f
11:50am 4.5ft 7s 6s 2
mph
1000.5mb 56f 54f
10:50am  -   -   -  2 4 mph 1000.5mb 56f 54f
9:50am  -   -   -  4 7 mph 1000.8mb 56f 54f
7:50am  -   -   -  9
mph
1000.3mb 56f 54f
5:50am  -   -   -  9
mph
999.9mb 56f 54f
4:50am  -   -   -  7 9 mph 1000mb 56f 54f
2:50am  -   -   -  7 9 mph 1000.3mb 56f 54f
1:50am  -   -   -  4 7 mph 1000.3mb 56f 55f
12:50am  -   -   -  4 7 mph 1000.1mb 56f 55f